Bissett, Canada
Current Conditions -  °F | °C
As of 5:00 PM on Tuesday 25 Nov 2014 (Local Time) from CYRL Reporting Station
Few Clouds Few Clouds  
Wind Chill: -17°   Ceiling: Unl
Heat Index: -17°   Visibility: 15mi
Dew Point: -20°   Wind: 3mph
Humidity: 78%   Direction: 330°NNW
Pressure: 29.99"   Gusts: NA
Location:  51.02°N, 95.67°W
Report Text: CYRL 252300Z 33003KT 15SM FEW018 M17/M20 A2999 RMK SC2 SLP195
Loading
Personal Weather Stations






























Interactive Weather Map New forecast layout! Learn more

10-Day Weather Forecast

Advertisements
Track Severe Weather on mobile